createdAt,value
2023-11-07T00:00:30.876Z,7.95
2023-11-07T00:02:57.656Z,7.70
2023-11-07T00:05:24.358Z,7.97
2023-11-07T00:07:51.020Z,7.97
2023-11-07T00:10:17.758Z,8.01
2023-11-07T00:12:44.384Z,7.96
2023-11-07T00:15:11.261Z,8.00
2023-11-07T00:17:38.166Z,8.04
2023-11-07T00:20:05.980Z,8.05
2023-11-07T00:22:32.881Z,8.11
2023-11-07T00:25:00.086Z,8.12
2023-11-07T00:27:29.063Z,8.13
2023-11-07T00:29:55.714Z,8.04
2023-11-07T00:32:22.289Z,8.13
2023-11-07T00:34:49.413Z,8.15
2023-11-07T00:37:16.077Z,8.15
2023-11-07T00:39:42.707Z,8.21
2023-11-07T00:42:09.937Z,8.28
2023-11-07T00:44:36.716Z,8.33
2023-11-07T00:47:03.815Z,8.33
2023-11-07T00:49:30.501Z,8.38
2023-11-07T00:51:58.965Z,8.36
2023-11-07T00:54:25.577Z,8.35
2023-11-07T00:56:52.288Z,8.28
2023-11-07T00:59:19.467Z,8.22
2023-11-07T01:01:46.098Z,8.24
2023-11-07T01:04:12.921Z,8.23
2023-11-07T01:06:39.656Z,8.16
2023-11-07T01:09:06.355Z,8.09
2023-11-07T01:11:33.119Z,8.20
2023-11-07T01:13:59.745Z,8.11
2023-11-07T01:16:26.636Z,8.18
2023-11-07T01:18:53.874Z,8.26
2023-11-07T01:21:20.734Z,8.11
2023-11-07T01:23:47.319Z,8.22
2023-11-07T01:26:13.942Z,8.33
2023-11-07T01:28:40.552Z,8.29
2023-11-07T01:31:07.649Z,8.29
2023-11-07T01:33:34.443Z,8.26
2023-11-07T01:36:01.201Z,8.27
2023-11-07T01:38:29.040Z,8.34
2023-11-07T01:40:55.696Z,8.26
2023-11-07T01:43:22.848Z,8.23
2023-11-07T01:45:49.919Z,8.31
2023-11-07T01:48:23.887Z,8.25
2023-11-07T01:50:51.157Z,8.24
2023-11-07T01:53:19.386Z,8.25
2023-11-07T01:55:46.211Z,8.27
2023-11-07T01:58:13.588Z,8.30
2023-11-07T02:00:41.238Z,8.27
2023-11-07T02:03:08.851Z,8.27
2023-11-07T02:05:35.955Z,8.26
2023-11-07T02:08:05.793Z,8.32
2023-11-07T02:10:33.119Z,8.27
2023-11-07T02:13:00.455Z,8.45
2023-11-07T02:15:27.793Z,8.26
2023-11-07T02:17:56.462Z,8.53
2023-11-07T02:20:23.588Z,8.64
2023-11-07T02:22:55.330Z,8.67
2023-11-07T02:25:22.060Z,8.45
2023-11-07T02:27:49.079Z,8.61
2023-11-07T02:30:15.756Z,8.80
2023-11-07T02:32:43.930Z,8.89
2023-11-07T02:35:15.154Z,8.91
2023-11-07T02:37:42.065Z,8.85
2023-11-07T02:40:12.247Z,9.06
2023-11-07T02:42:39.408Z,9.08
2023-11-07T02:45:07.036Z,9.23
2023-11-07T02:47:36.381Z,9.08
2023-11-07T02:50:06.110Z,9.30
2023-11-07T02:52:32.992Z,9.17
2023-11-07T02:55:01.476Z,9.26
2023-11-07T02:57:28.098Z,9.05
2023-11-07T02:59:54.906Z,9.19
2023-11-07T03:02:22.177Z,9.19
2023-11-07T03:04:49.491Z,9.09
2023-11-07T03:07:16.202Z,9.17
2023-11-07T03:09:42.877Z,9.08
2023-11-07T03:12:13.838Z,9.04
2023-11-07T03:14:42.369Z,9.01
2023-11-07T03:17:09.059Z,8.93
2023-11-07T03:19:35.650Z,9.03
2023-11-07T03:22:02.292Z,8.97
2023-11-07T03:24:29.108Z,8.88
2023-11-07T03:26:55.776Z,8.88
2023-11-07T03:29:22.785Z,8.91
2023-11-07T03:31:49.852Z,8.84
2023-11-07T03:34:17.469Z,8.91
2023-11-07T03:36:44.736Z,8.91
2023-11-07T03:39:11.905Z,8.96
2023-11-07T03:41:42.639Z,8.97
2023-11-07T03:44:09.413Z,8.84
2023-11-07T03:46:35.984Z,8.96
2023-11-07T03:49:03.023Z,9.01
2023-11-07T03:51:29.772Z,9.01
2023-11-07T03:53:56.513Z,8.90
2023-11-07T03:56:23.964Z,9.04
2023-11-07T03:58:51.109Z,9.09
2023-11-07T04:01:18.043Z,9.04
2023-11-07T04:03:44.824Z,9.05
2023-11-07T04:06:11.593Z,8.92
2023-11-07T04:08:38.348Z,8.97
2023-11-07T04:11:05.433Z,8.93
2023-11-07T04:13:32.073Z,8.79
2023-11-07T04:15:59.159Z,8.85
2023-11-07T04:18:25.956Z,8.69
2023-11-07T04:20:53.319Z,8.93
2023-11-07T04:23:20.960Z,8.89
2023-11-07T04:25:48.904Z,8.81
2023-11-07T04:28:17.750Z,8.75
2023-11-07T04:30:44.789Z,8.70
2023-11-07T04:33:11.604Z,8.68
2023-11-07T04:35:38.471Z,8.50
2023-11-07T04:38:05.651Z,8.64
2023-11-07T04:40:32.315Z,8.66
2023-11-07T04:42:59.087Z,8.66
2023-11-07T04:45:25.735Z,8.63
2023-11-07T04:48:18.139Z,8.70
2023-11-07T04:50:45.794Z,8.72
2023-11-07T04:53:12.436Z,8.76
2023-11-07T04:55:39.061Z,8.66
2023-11-07T04:58:06.086Z,8.84
2023-11-07T05:00:32.730Z,8.94
2023-11-07T05:02:59.567Z,8.71
2023-11-07T05:05:26.533Z,8.99
2023-11-07T05:07:53.111Z,8.97
2023-11-07T05:10:21.605Z,8.97
2023-11-07T05:12:48.192Z,8.99
2023-11-07T05:15:14.904Z,8.95
2023-11-07T05:17:41.782Z,8.81
2023-11-07T05:20:11.320Z,8.68
2023-11-07T05:22:38.167Z,8.68
2023-11-07T05:25:07.633Z,8.76
2023-11-07T05:27:34.664Z,8.76
2023-11-07T05:30:01.845Z,8.72
2023-11-07T05:32:28.972Z,8.87
2023-11-07T05:34:56.190Z,8.91
2023-11-07T05:37:23.028Z,8.86
2023-11-07T05:39:51.456Z,9.09
2023-11-07T05:42:19.467Z,9.16
2023-11-07T05:44:46.852Z,9.19
2023-11-07T05:47:13.747Z,9.28
2023-11-07T05:49:40.381Z,9.25
2023-11-07T05:52:07.081Z,9.17
2023-11-07T05:54:33.686Z,9.41
2023-11-07T05:57:00.248Z,9.42
2023-11-07T05:59:27.861Z,9.45
2023-11-07T06:01:55.603Z,9.46
2023-11-07T06:04:35.512Z,9.32
2023-11-07T06:07:02.257Z,9.42
2023-11-07T06:09:30.030Z,9.44
2023-11-07T06:12:00.395Z,9.46
2023-11-07T06:14:27.011Z,9.51
2023-11-07T06:16:56.934Z,9.33
2023-11-07T06:19:23.795Z,9.40
2023-11-07T06:21:50.835Z,9.52
2023-11-07T06:24:17.982Z,9.49
2023-11-07T06:26:47.050Z,9.43
2023-11-07T06:29:15.968Z,9.49
2023-11-07T06:31:46.560Z,9.37
2023-11-07T06:34:15.520Z,9.36
2023-11-07T06:36:42.364Z,9.40
2023-11-07T06:39:11.470Z,9.38
2023-11-07T06:41:39.493Z,9.36
2023-11-07T06:44:07.510Z,9.46
2023-11-07T06:46:34.323Z,9.50
2023-11-07T06:49:02.596Z,9.45
2023-11-07T06:51:29.561Z,9.52
2023-11-07T06:53:56.648Z,9.56
2023-11-07T06:56:23.320Z,9.58
2023-11-07T06:58:49.965Z,9.59
2023-11-07T07:01:16.581Z,9.54
2023-11-07T07:03:43.559Z,9.60
2023-11-07T07:06:10.352Z,9.60
2023-11-07T07:08:37.128Z,9.60
2023-11-07T07:11:06.041Z,9.57
2023-11-07T07:13:32.937Z,9.65
2023-11-07T07:16:01.067Z,9.68
2023-11-07T07:18:28.418Z,9.73
2023-11-07T07:20:56.460Z,9.67
2023-11-07T07:23:26.513Z,9.74
2023-11-07T07:26:00.881Z,9.72
2023-11-07T07:28:27.440Z,9.60
2023-11-07T07:30:55.403Z,9.74
2023-11-07T07:33:25.385Z,9.72
2023-11-07T07:35:52.389Z,9.66
2023-11-07T07:38:19.110Z,9.71
2023-11-07T07:40:45.664Z,9.83
2023-11-07T07:43:12.714Z,9.84
2023-11-07T07:45:44.010Z,9.60
2023-11-07T07:48:12.190Z,9.85
2023-11-07T07:50:43.764Z,9.87
2023-11-07T07:53:11.836Z,9.94
2023-11-07T07:55:44.840Z,9.94
2023-11-07T07:58:12.262Z,9.94
2023-11-07T08:00:39.412Z,10.03
2023-11-07T08:03:10.843Z,9.98
2023-11-07T08:05:40.896Z,10.15
2023-11-07T08:08:08.753Z,10.20
2023-11-07T08:10:36.274Z,10.24
2023-11-07T08:13:08.145Z,10.28
2023-11-07T08:15:36.552Z,10.43
2023-11-07T08:18:08.464Z,10.59
2023-11-07T08:20:36.242Z,10.70
2023-11-07T08:23:02.851Z,10.74
2023-11-07T08:25:29.509Z,10.73
2023-11-07T08:27:56.215Z,10.63
2023-11-07T08:30:24.213Z,11.08
2023-11-07T08:32:52.242Z,11.76
2023-11-07T08:35:22.025Z,12.48
2023-11-07T08:37:51.494Z,12.69
2023-11-07T08:40:22.117Z,12.81
2023-11-07T08:42:49.757Z,12.73
2023-11-07T08:45:22.785Z,12.65
2023-11-07T08:47:52.340Z,12.78
2023-11-07T08:50:22.214Z,13.05
2023-11-07T08:52:51.116Z,12.94
2023-11-07T08:55:19.351Z,13.00
2023-11-07T08:57:47.492Z,12.82
2023-11-07T09:00:22.622Z,12.80
2023-11-07T09:02:51.060Z,12.84
2023-11-07T09:05:18.357Z,13.31
2023-11-07T09:07:45.804Z,13.04
2023-11-07T09:10:12.773Z,12.98
2023-11-07T09:12:42.785Z,12.96
2023-11-07T09:15:12.174Z,13.08
2023-11-07T09:17:40.493Z,13.11
2023-11-07T09:20:10.861Z,13.33
2023-11-07T09:22:37.615Z,14.26
2023-11-07T09:25:05.205Z,15.58
2023-11-07T09:27:32.655Z,15.51
2023-11-07T09:30:00.592Z,14.68
2023-11-07T09:32:27.712Z,14.22
2023-11-07T09:34:58.196Z,14.10
2023-11-07T09:37:25.117Z,14.76
2023-11-07T09:39:52.016Z,15.62
2023-11-07T09:42:18.971Z,16.34
2023-11-07T09:44:45.773Z,16.96
2023-11-07T09:47:13.309Z,18.14
2023-11-07T09:49:40.206Z,18.38
2023-11-07T09:52:07.997Z,17.88
2023-11-07T09:54:35.491Z,18.92
2023-11-07T09:57:05.111Z,18.40
2023-11-07T09:59:38.157Z,17.52
2023-11-07T10:02:07.776Z,17.03
2023-11-07T10:04:36.300Z,17.81
2023-11-07T10:07:04.185Z,18.45
2023-11-07T10:09:33.343Z,19.18
2023-11-07T10:12:00.813Z,19.42
2023-11-07T10:14:27.579Z,18.87
2023-11-07T10:16:58.257Z,19.51
2023-11-07T10:19:26.784Z,19.44
2023-11-07T10:21:53.962Z,19.40
2023-11-07T10:24:21.283Z,19.33
2023-11-07T10:26:55.663Z,18.29
2023-11-07T10:29:28.795Z,17.67
2023-11-07T10:32:07.503Z,17.79
2023-11-07T10:34:34.366Z,18.04
2023-11-07T10:37:01.540Z,18.32
2023-11-07T10:39:29.947Z,18.62
2023-11-07T10:41:57.644Z,17.85
2023-11-07T10:44:30.491Z,17.03
2023-11-07T10:47:01.754Z,16.71
2023-11-07T10:49:32.125Z,16.98
2023-11-07T10:52:03.983Z,16.24
2023-11-07T10:54:32.094Z,15.78
2023-11-07T10:57:11.165Z,15.74
2023-11-07T10:59:44.952Z,15.35
2023-11-07T11:02:12.459Z,15.20
2023-11-07T11:04:40.639Z,14.89
2023-11-07T11:07:09.643Z,14.43
2023-11-07T11:09:36.510Z,13.93
2023-11-07T11:12:05.160Z,13.72
2023-11-07T11:14:31.816Z,13.22
2023-11-07T11:17:09.882Z,13.15
2023-11-07T11:19:46.402Z,13.74
2023-11-07T11:22:19.759Z,15.18
2023-11-07T11:25:17.526Z,16.63
2023-11-07T11:27:49.841Z,16.26
2023-11-07T11:30:17.833Z,15.50
2023-11-07T11:32:47.854Z,14.95
2023-11-07T11:35:17.161Z,14.51
2023-11-07T11:38:13.876Z,14.07
2023-11-07T11:40:51.184Z,13.73
2023-11-07T11:43:22.894Z,13.56
2023-11-07T11:45:57.013Z,14.13
2023-11-07T11:48:51.763Z,15.46
2023-11-07T11:51:34.970Z,16.35
2023-11-07T11:54:01.739Z,16.86
2023-11-07T11:56:29.413Z,17.12
2023-11-07T11:59:07.514Z,17.48
2023-11-07T12:01:51.896Z,17.79
2023-11-07T12:04:32.482Z,17.20
2023-11-07T12:07:21.718Z,16.75
2023-11-07T12:09:51.319Z,16.39
2023-11-07T12:12:20.061Z,16.15
2023-11-07T12:14:58.386Z,15.60
2023-11-07T12:17:27.406Z,15.22
2023-11-07T12:20:07.534Z,15.25
2023-11-07T12:22:34.992Z,15.15
2023-11-07T12:25:21.612Z,14.94
2023-11-07T12:27:57.645Z,14.96
2023-11-07T12:30:24.420Z,15.24
2023-11-07T12:33:03.552Z,14.85
2023-11-07T12:35:31.232Z,14.73
2023-11-07T12:38:01.479Z,14.64
2023-11-07T12:40:28.634Z,14.39
2023-11-07T12:42:57.555Z,14.01
2023-11-07T12:45:32.483Z,13.84
2023-11-07T12:48:07.263Z,13.72
2023-11-07T12:50:37.224Z,13.67
2023-11-07T12:53:06.963Z,13.86
2023-11-07T12:55:37.041Z,14.03
2023-11-07T12:58:04.896Z,13.94
2023-11-07T13:00:52.208Z,14.23
2023-11-07T13:03:24.940Z,14.18
2023-11-07T13:06:06.503Z,14.49
2023-11-07T13:08:35.886Z,14.73
2023-11-07T13:11:10.696Z,14.73
2023-11-07T13:13:38.078Z,14.94
2023-11-07T13:16:05.136Z,15.39
2023-11-07T13:18:31.805Z,15.32
2023-11-07T13:20:58.520Z,15.00
2023-11-07T13:23:25.121Z,14.60
2023-11-07T13:25:51.739Z,14.33
2023-11-07T13:28:18.354Z,14.61
2023-11-07T13:30:45.084Z,14.83
2023-11-07T13:33:12.019Z,14.59
2023-11-07T13:35:39.938Z,14.29
2023-11-07T13:38:06.517Z,14.00
2023-11-07T13:40:33.171Z,13.74
2023-11-07T13:42:59.750Z,13.90
2023-11-07T13:45:26.397Z,13.76
2023-11-07T13:47:53.176Z,13.50
2023-11-07T13:50:19.781Z,13.52
2023-11-07T13:52:46.492Z,13.56
2023-11-07T13:55:13.108Z,13.49
2023-11-07T13:57:41.948Z,13.39
2023-11-07T14:00:12.802Z,13.40
2023-11-07T14:02:41.478Z,13.38
2023-11-07T14:05:08.602Z,13.39
2023-11-07T14:07:36.198Z,13.21
2023-11-07T14:10:08.484Z,13.10
2023-11-07T14:12:42.575Z,12.91
2023-11-07T14:15:14.853Z,12.82
2023-11-07T14:17:41.753Z,12.75
2023-11-07T14:20:18.307Z,12.63
2023-11-07T14:22:46.218Z,12.59
2023-11-07T14:25:13.111Z,12.60
2023-11-07T14:27:41.593Z,12.51
2023-11-07T14:30:26.873Z,12.59
2023-11-07T14:32:56.386Z,12.41
2023-11-07T14:35:23.007Z,12.63
2023-11-07T14:37:51.352Z,12.92
2023-11-07T14:40:18.245Z,12.86
2023-11-07T14:42:46.193Z,12.66
2023-11-07T14:45:14.031Z,12.51
2023-11-07T14:47:45.178Z,12.25
2023-11-07T14:50:14.057Z,12.26
2023-11-07T14:52:41.539Z,12.19
2023-11-07T14:55:12.117Z,12.12
2023-11-07T14:57:45.376Z,12.11
2023-11-07T15:00:29.219Z,12.07
2023-11-07T15:02:59.423Z,12.08
2023-11-07T15:05:33.026Z,11.88
2023-11-07T15:08:04.079Z,11.85
2023-11-07T15:10:32.018Z,11.66
2023-11-07T15:13:03.952Z,11.45
2023-11-07T15:15:31.320Z,11.23
2023-11-07T15:17:59.692Z,11.06
2023-11-07T15:20:31.449Z,11.27
2023-11-07T15:23:02.146Z,11.34
2023-11-07T15:25:34.355Z,11.36
2023-11-07T15:28:01.484Z,11.36
2023-11-07T15:30:28.672Z,11.31
2023-11-07T15:32:58.417Z,11.17
2023-11-07T15:35:25.706Z,11.21
2023-11-07T15:37:52.745Z,11.15
2023-11-07T15:40:22.820Z,11.02
2023-11-07T15:42:50.339Z,10.99
2023-11-07T15:45:19.798Z,11.04
2023-11-07T15:47:48.164Z,10.97
2023-11-07T15:50:16.710Z,10.86
2023-11-07T15:52:55.670Z,10.73
2023-11-07T15:55:31.409Z,10.47
2023-11-07T15:57:58.027Z,10.42
2023-11-07T16:00:27.596Z,10.33
2023-11-07T16:02:54.756Z,10.20
2023-11-07T16:05:25.317Z,10.11
2023-11-07T16:07:52.049Z,9.93
2023-11-07T16:10:18.697Z,9.92
2023-11-07T16:12:45.455Z,9.98
2023-11-07T16:15:12.488Z,9.62
2023-11-07T16:17:41.165Z,9.73
2023-11-07T16:20:10.122Z,9.57
2023-11-07T16:22:36.786Z,9.45
2023-11-07T16:25:04.387Z,9.51
2023-11-07T16:27:31.049Z,9.40
2023-11-07T16:29:59.801Z,9.50
2023-11-07T16:32:27.615Z,9.46
2023-11-07T16:34:54.622Z,9.32
2023-11-07T16:37:21.257Z,9.38
2023-11-07T16:39:47.915Z,9.59
2023-11-07T16:42:14.640Z,9.70
2023-11-07T16:44:43.196Z,9.75
2023-11-07T16:47:13.391Z,9.85
2023-11-07T16:49:44.369Z,9.78
2023-11-07T16:52:11.787Z,9.95
2023-11-07T16:54:39.358Z,9.94
2023-11-07T16:57:07.096Z,10.06
2023-11-07T16:59:34.522Z,9.96
2023-11-07T17:02:01.178Z,9.92
2023-11-07T17:04:28.019Z,9.83
2023-11-07T17:06:54.833Z,9.73
2023-11-07T17:09:22.511Z,9.67
2023-11-07T17:11:49.162Z,9.51
2023-11-07T17:14:15.737Z,9.43
2023-11-07T17:16:42.429Z,9.33
2023-11-07T17:19:09.236Z,9.31
2023-11-07T17:21:35.998Z,9.14
2023-11-07T17:24:02.738Z,9.00
2023-11-07T17:26:30.186Z,9.09
2023-11-07T17:28:57.416Z,9.05
2023-11-07T17:31:24.144Z,8.94
2023-11-07T17:33:50.935Z,8.84
2023-11-07T17:36:17.685Z,8.74
2023-11-07T17:38:44.372Z,8.83
2023-11-07T17:41:14.663Z,8.65
2023-11-07T17:43:41.519Z,8.66
2023-11-07T17:46:10.442Z,8.61
2023-11-07T17:48:37.112Z,8.46
2023-11-07T17:51:07.115Z,8.56
2023-11-07T17:53:33.714Z,8.57
2023-11-07T17:56:00.528Z,8.36
2023-11-07T17:58:27.277Z,8.43
2023-11-07T18:00:54.717Z,8.48
2023-11-07T18:03:22.545Z,8.36
2023-11-07T18:05:49.483Z,8.30
2023-11-07T18:08:16.220Z,8.33
2023-11-07T18:10:43.190Z,8.23
2023-11-07T18:13:13.424Z,8.25
2023-11-07T18:15:43.272Z,8.19
2023-11-07T18:18:10.298Z,8.25
2023-11-07T18:20:37.000Z,8.19
2023-11-07T18:23:03.586Z,8.07
2023-11-07T18:25:30.193Z,8.20
2023-11-07T18:27:56.749Z,8.12
2023-11-07T18:30:23.478Z,7.98
2023-11-07T18:32:50.315Z,8.20
2023-11-07T18:35:16.972Z,8.16
2023-11-07T18:37:43.626Z,8.17
2023-11-07T18:40:14.038Z,8.03
2023-11-07T18:42:42.058Z,8.22
2023-11-07T18:45:11.709Z,8.25
2023-11-07T18:47:39.016Z,8.24
2023-11-07T18:50:07.229Z,8.11
2023-11-07T18:52:34.410Z,8.06
2023-11-07T18:55:02.068Z,8.26
2023-11-07T18:57:28.917Z,8.12
2023-11-07T18:59:56.762Z,8.38
2023-11-07T19:02:25.297Z,8.40
2023-11-07T19:04:52.477Z,8.33
2023-11-07T19:07:20.164Z,8.49
2023-11-07T19:09:47.414Z,8.57
2023-11-07T19:12:15.036Z,8.52
2023-11-07T19:14:42.602Z,8.51
2023-11-07T19:17:09.327Z,8.57
2023-11-07T19:19:37.107Z,8.64
2023-11-07T19:22:04.810Z,8.68
2023-11-07T19:24:32.039Z,8.68
2023-11-07T19:27:00.042Z,8.64
2023-11-07T19:29:26.952Z,8.63
2023-11-07T19:31:55.053Z,8.50
2023-11-07T19:34:23.070Z,8.66
2023-11-07T19:36:56.145Z,8.64
2023-11-07T19:39:25.757Z,8.58
2023-11-07T19:41:54.566Z,8.55
2023-11-07T19:44:21.153Z,8.55
2023-11-07T19:46:47.783Z,8.61
2023-11-07T19:49:15.012Z,8.49
2023-11-07T19:51:42.082Z,8.66
2023-11-07T19:54:08.818Z,8.70
2023-11-07T19:56:38.787Z,8.68
2023-11-07T19:59:05.475Z,8.63
2023-11-07T20:01:32.097Z,8.60
2023-11-07T20:03:58.882Z,8.67
2023-11-07T20:06:25.908Z,8.65
2023-11-07T20:08:52.676Z,8.64
2023-11-07T20:11:19.339Z,8.57
2023-11-07T20:13:46.068Z,8.69
2023-11-07T20:16:14.377Z,8.67
2023-11-07T20:18:41.063Z,8.68
2023-11-07T20:21:07.882Z,8.65
2023-11-07T20:23:35.629Z,8.58
2023-11-07T20:26:08.187Z,8.49
2023-11-07T20:28:34.693Z,8.44
2023-11-07T20:31:01.315Z,8.24
2023-11-07T20:33:37.394Z,8.29
2023-11-07T20:36:15.885Z,8.20
2023-11-07T20:38:42.835Z,8.27
2023-11-07T20:41:11.120Z,8.36
2023-11-07T20:43:38.428Z,8.59
2023-11-07T20:46:18.419Z,8.67
2023-11-07T20:48:50.733Z,8.85
2023-11-07T20:51:18.152Z,8.93
2023-11-07T20:53:44.845Z,9.03
2023-11-07T20:56:12.273Z,9.08
2023-11-07T20:58:40.857Z,8.89
2023-11-07T21:01:08.367Z,9.16
2023-11-07T21:03:35.355Z,9.22
2023-11-07T21:06:02.139Z,9.20
2023-11-07T21:08:28.798Z,9.25
2023-11-07T21:10:56.475Z,9.30
2023-11-07T21:13:25.254Z,9.20
2023-11-07T21:15:51.981Z,9.11
2023-11-07T21:18:18.743Z,9.24
2023-11-07T21:20:46.467Z,9.28
2023-11-07T21:23:13.253Z,9.27
2023-11-07T21:25:40.156Z,9.17
2023-11-07T21:28:06.820Z,9.22
2023-11-07T21:30:33.513Z,9.22
2023-11-07T21:33:05.407Z,9.11
2023-11-07T21:35:32.193Z,9.10
2023-11-07T21:37:58.851Z,9.10
2023-11-07T21:40:25.451Z,8.95
2023-11-07T21:42:52.644Z,8.95
2023-11-07T21:45:21.011Z,8.86
2023-11-07T21:47:48.344Z,8.80
2023-11-07T21:50:15.173Z,8.88
2023-11-07T21:52:41.754Z,8.70
2023-11-07T21:55:08.834Z,8.65
2023-11-07T21:57:37.542Z,8.53
2023-11-07T22:00:05.271Z,8.67
2023-11-07T22:02:39.881Z,8.65
2023-11-07T22:05:06.812Z,8.64
2023-11-07T22:07:33.444Z,8.53
2023-11-07T22:10:00.033Z,8.59
2023-11-07T22:12:26.696Z,8.67
2023-11-07T22:14:53.270Z,8.78
2023-11-07T22:17:19.866Z,8.84
2023-11-07T22:19:46.512Z,8.82
2023-11-07T22:22:13.236Z,8.76
2023-11-07T22:24:40.711Z,8.53
2023-11-07T22:27:07.422Z,8.83
2023-11-07T22:29:34.137Z,8.78
2023-11-07T22:32:00.736Z,8.61
2023-11-07T22:34:27.407Z,8.72
2023-11-07T22:36:54.024Z,8.71
2023-11-07T22:39:20.629Z,8.70
2023-11-07T22:41:50.875Z,8.65
2023-11-07T22:44:17.505Z,8.73
2023-11-07T22:46:44.088Z,8.77
2023-11-07T22:49:10.721Z,8.74
2023-11-07T22:51:37.424Z,8.85
2023-11-07T22:54:04.187Z,8.96
2023-11-07T22:56:30.846Z,8.84
2023-11-07T22:58:57.450Z,8.69
2023-11-07T23:01:25.924Z,9.04
2023-11-07T23:03:53.294Z,8.72
2023-11-07T23:06:19.968Z,9.04
2023-11-07T23:08:46.723Z,9.08
2023-11-07T23:11:13.331Z,9.03
2023-11-07T23:13:39.905Z,8.85
2023-11-07T23:16:08.292Z,8.78
2023-11-07T23:18:35.104Z,8.58
2023-11-07T23:21:01.767Z,8.84
2023-11-07T23:23:28.397Z,8.88
2023-11-07T23:25:54.967Z,8.81
2023-11-07T23:28:22.027Z,8.59
2023-11-07T23:30:49.272Z,8.42
2023-11-07T23:33:16.021Z,8.44
2023-11-07T23:35:42.669Z,8.14
2023-11-07T23:38:10.426Z,8.23
2023-11-07T23:40:37.616Z,8.16
2023-11-07T23:43:04.286Z,8.23
2023-11-07T23:45:30.904Z,8.05
2023-11-07T23:47:57.640Z,8.38
2023-11-07T23:50:26.706Z,8.42
2023-11-07T23:52:53.328Z,8.41
2023-11-07T23:55:19.940Z,8.45
2023-11-07T23:57:47.997Z,8.65
